Time;durP1;ratioP1;P1;durP2;ratioP2;P2;SDS_P1;SDS_P2;PMS_P1;PMS_P2;Temp;Humidity;BMP_temperature;BMP_pressure;BME280_temperature;BME280_humidity;BME280_pressure;Samples;Min_cycle;Max_cycle;Signal;HPM_P1;HPM_P2
2022/10/22 00:01:33;;;;;;;59.78;28.17;;;12.10;99.90;;;;;;5087142;28;20031;-84
2022/10/22 00:03:58;;;;;;;51.78;22.55;;;12.00;99.90;;;;;;5052899;28;20017;-83
2022/10/22 00:06:24;;;;;;;41.08;18.38;;;12.00;99.90;;;;;;5081579;28;20111;-84
2022/10/22 00:08:50;;;;;;;42.42;18.98;;;12.00;99.90;;;;;;5059934;28;20028;-83
2022/10/22 00:11:17;;;;;;;46.28;18.85;;;12.00;99.90;;;;;;5085083;28;20039;-84
2022/10/22 00:13:43;;;;;;;46.10;20.27;;;11.90;99.90;;;;;;5079043;28;20376;-84
2022/10/22 00:16:10;;;;;;;38.08;18.35;;;11.90;99.90;;;;;;5057435;28;20020;-83
2022/10/22 00:18:36;;;;;;;43.45;19.48;;;11.90;99.90;;;;;;5084080;28;20067;-84
2022/10/22 00:21:02;;;;;;;53.50;21.52;;;11.90;99.90;;;;;;5071588;28;20388;-84
2022/10/22 00:23:28;;;;;;;41.58;18.50;;;11.80;99.90;;;;;;5098047;28;20028;-83
2022/10/22 00:25:54;;;;;;;38.35;18.88;;;11.80;99.90;;;;;;5067049;28;20031;-84
2022/10/22 00:28:20;;;;;;;39.92;16.73;;;11.80;99.90;;;;;;5086897;28;20036;-84
2022/10/22 00:30:45;;;;;;;31.40;14.60;;;11.90;99.90;;;;;;5061952;28;20506;-83
2022/10/22 00:33:11;;;;;;;24.83;13.68;;;11.90;99.90;;;;;;5070164;28;20020;-84
2022/10/22 00:35:37;;;;;;;30.13;14.40;;;11.90;99.90;;;;;;5116078;27;20665;-83
2022/10/22 00:38:03;;;;;;;56.22;20.27;;;11.80;99.90;;;;;;5055854;28;20114;-83
2022/10/22 00:40:29;;;;;;;71.47;26.52;;;11.80;99.90;;;;;;5081629;28;20058;-84
2022/10/22 00:42:54;;;;;;;47.25;19.45;;;11.90;99.90;;;;;;5058770;28;20039;-84
2022/10/22 00:45:26;;;;;;;30.80;13.60;;;11.80;99.90;;;;;;5115724;27;20032;-83
2022/10/22 00:48:05;;;;;;;25.13;12.68;;;11.80;99.90;;;;;;5078011;28;20373;-84
2022/10/22 00:51:03;;;;;;;25.90;12.93;;;11.70;99.90;;;;;;5051481;28;20033;-83
2022/10/22 00:53:33;;;;;;;29.65;12.75;;;11.70;99.90;;;;;;5046864;28;20032;-84
2022/10/22 00:55:59;;;;;;;32.80;14.87;;;11.80;99.90;;;;;;5071802;28;20028;-83
2022/10/22 00:58:28;;;;;;;64.40;20.48;;;11.80;99.90;;;;;;5063160;28;20528;-84
2022/10/22 01:00:55;;;;;;;42.85;19.40;;;11.80;99.90;;;;;;5098122;28;20054;-83
2022/10/22 01:03:21;;;;;;;48.42;20.65;;;11.80;99.90;;;;;;5075564;28;20036;-84
2022/10/22 01:05:52;;;;;;;47.60;23.00;;;11.80;99.90;;;;;;5110269;27;20108;-84
2022/10/22 01:08:42;;;;;;;60.42;24.20;;;11.70;99.90;;;;;;5059635;28;20020;-83
2022/10/22 01:11:20;;;;;;;49.95;24.02;;;11.80;99.90;;;;;;5037430;28;20039;-83
2022/10/22 01:14:11;;;;;;;46.08;21.92;;;11.70;99.90;;;;;;5073246;28;20506;-83
2022/10/22 01:16:54;;;;;;;46.30;21.08;;;11.70;99.90;;;;;;5097249;28;20028;-83
2022/10/22 01:19:58;;;;;;;43.20;21.48;;;11.60;99.90;;;;;;5068650;28;20029;-83
2022/10/22 01:22:42;;;;;;;44.72;20.73;;;11.60;99.90;;;;;;5056474;28;20377;-83
2022/10/22 01:25:48;;;;;;;39.13;17.77;;;11.60;99.90;;;;;;5064879;28;20085;-84
2022/10/22 01:28:33;;;;;;;29.58;13.13;;;11.60;99.90;;;;;;5056395;28;20039;-84
2022/10/22 01:31:02;;;;;;;25.20;12.18;;;11.60;99.90;;;;;;5067406;28;20040;-83
2022/10/22 01:33:29;;;;;;;28.65;12.55;;;11.50;99.90;;;;;;5078422;28;20479;-84
2022/10/22 01:35:56;;;;;;;22.30;11.15;;;11.50;99.90;;;;;;5072202;28;20159;-83
2022/10/22 01:38:23;;;;;;;20.17;10.35;;;11.50;99.90;;;;;;5095452;28;20024;-84
2022/10/22 01:40:50;;;;;;;17.20;9.43;;;11.50;99.90;;;;;;5075124;28;20114;-84
2022/10/22 01:43:16;;;;;;;22.17;9.02;;;11.50;99.90;;;;;;5078569;28;20062;-84
2022/10/22 01:45:46;;;;;;;21.52;8.20;;;11.50;99.90;;;;;;5061469;28;20079;-84
2022/10/22 01:48:24;;;;;;;19.00;7.38;;;11.50;99.90;;;;;;5068237;28;20056;-83
2022/10/22 01:51:28;;;;;;;12.95;7.05;;;11.50;99.90;;;;;;5081846;28;20039;-84
2022/10/22 01:53:57;;;;;;;14.77;7.18;;;11.40;99.90;;;;;;5074393;28;20100;-84
2022/10/22 01:56:36;;;;;;;17.65;6.75;;;11.40;99.90;;;;;;5061504;28;20752;-84
2022/10/22 01:59:24;;;;;;;20.88;6.38;;;11.30;99.90;;;;;;5052409;28;20052;-83
2022/10/22 02:02:06;;;;;;;13.90;6.20;;;11.40;99.90;;;;;;5080612;28;20115;-84
2022/10/22 02:04:45;;;;;;;11.25;6.20;;;11.40;99.90;;;;;;5082971;28;20028;-84
2022/10/22 02:07:36;;;;;;;14.00;7.35;;;11.40;99.90;;;;;;5062770;28;20492;-84
2022/10/22 02:10:03;;;;;;;11.37;6.23;;;11.40;99.90;;;;;;5075125;28;20028;-84
2022/10/22 02:12:31;;;;;;;12.77;5.72;;;11.40;99.90;;;;;;5058002;28;20359;-84
2022/10/22 02:14:59;;;;;;;14.32;4.47;;;11.50;99.90;;;;;;5095656;27;20036;-83
2022/10/22 02:17:29;;;;;;;13.85;4.57;;;11.50;99.90;;;;;;5061768;28;20029;-83
2022/10/22 02:20:08;;;;;;;14.18;4.75;;;11.50;99.90;;;;;;5078001;28;20059;-83
2022/10/22 02:22:35;;;;;;;11.07;4.65;;;11.50;99.90;;;;;;5078916;28;20040;-83
2022/10/22 02:25:02;;;;;;;10.63;4.57;;;11.50;99.90;;;;;;5079165;28;20089;-83
2022/10/22 02:27:44;;;;;;;9.43;4.70;;;11.60;99.90;;;;;;5065131;28;20020;-84
2022/10/22 02:30:16;;;;;;;7.75;4.03;;;11.60;99.90;;;;;;5075270;28;20483;-84
2022/10/22 02:33:05;;;;;;;10.35;4.20;;;11.60;99.90;;;;;;5055861;28;20453;-84
2022/10/22 02:35:31;;;;;;;15.18;3.90;;;11.60;99.90;;;;;;5064057;28;20024;-84
2022/10/22 02:37:58;;;;;;;8.48;4.47;;;11.60;99.90;;;;;;5074847;28;20028;-83
2022/10/22 02:40:24;;;;;;;10.63;5.38;;;11.60;99.90;;;;;;5083003;28;20455;-83
2022/10/22 02:42:50;;;;;;;11.50;4.55;;;11.60;99.90;;;;;;5060957;28;20089;-83
2022/10/22 02:45:20;;;;;;;14.55;5.88;;;11.60;99.90;;;;;;5082579;28;20024;-84
2022/10/22 02:47:46;;;;;;;13.60;6.60;;;11.60;99.90;;;;;;5059184;28;20674;-84
2022/10/22 02:50:12;;;;;;;14.93;7.82;;;11.60;99.90;;;;;;5076975;28;20041;-84
2022/10/22 02:52:37;;;;;;;15.27;8.82;;;11.60;99.90;;;;;;5062900;28;20865;-84
2022/10/22 02:55:12;;;;;;;19.65;13.10;;;11.60;99.90;;;;;;5059292;28;20034;-83
2022/10/22 02:57:38;;;;;;;22.63;12.45;;;11.60;99.90;;;;;;5063606;28;20123;-84
2022/10/22 03:00:08;;;;;;;17.58;12.48;;;11.60;99.90;;;;;;5060534;28;20055;-84
2022/10/22 03:02:34;;;;;;;22.73;12.40;;;11.60;99.90;;;;;;5067224;28;20086;-84
2022/10/22 03:04:59;;;;;;;31.98;14.35;;;11.60;99.90;;;;;;5087060;28;20025;-84
2022/10/22 03:07:36;;;;;;;23.15;13.57;;;11.60;99.90;;;;;;5072747;28;20111;-84
2022/10/22 03:10:03;;;;;;;23.83;14.43;;;11.70;99.90;;;;;;5075498;28;20020;-84
2022/10/22 03:12:29;;;;;;;25.75;16.83;;;11.60;99.90;;;;;;5056732;28;20124;-84
2022/10/22 03:14:54;;;;;;;24.80;17.33;;;11.60;99.90;;;;;;5093139;28;20530;-85
2022/10/22 03:17:20;;;;;;;30.10;17.67;;;11.60;99.90;;;;;;5061702;28;20025;-84
2022/10/22 03:19:46;;;;;;;24.25;16.58;;;11.60;99.90;;;;;;5076047;28;20037;-84
2022/10/22 03:22:21;;;;;;;25.58;17.92;;;11.60;99.90;;;;;;5083162;28;20440;-84
2022/10/22 03:24:51;;;;;;;37.78;20.23;;;11.60;99.90;;;;;;5092312;28;20515;-84
2022/10/22 03:27:20;;;;;;;27.98;16.08;;;11.60;99.90;;;;;;5067646;28;20028;-84
2022/10/22 03:29:47;;;;;;;25.48;16.25;;;11.60;99.90;;;;;;5110210;27;20025;-84
2022/10/22 03:32:13;;;;;;;30.05;17.25;;;11.60;99.90;;;;;;5076762;28;20028;-84
2022/10/22 03:34:38;;;;;;;26.58;16.83;;;11.60;99.90;;;;;;5058985;28;20032;-84
2022/10/22 03:37:04;;;;;;;30.30;16.15;;;11.70;99.90;;;;;;5075796;28;20123;-84
2022/10/22 03:39:33;;;;;;;27.80;17.10;;;11.70;99.90;;;;;;5061135;28;20023;-85
2022/10/22 03:41:59;;;;;;;29.55;17.60;;;11.70;99.90;;;;;;5064401;28;20039;-84
2022/10/22 03:44:25;;;;;;;31.40;17.92;;;11.60;99.90;;;;;;5082321;28;20434;-84
2022/10/22 03:46:51;;;;;;;27.35;16.15;;;11.60;99.90;;;;;;5094373;28;20025;-84
2022/10/22 03:49:16;;;;;;;26.83;16.88;;;11.60;99.90;;;;;;5059430;28;20034;-85
2022/10/22 03:51:42;;;;;;;24.83;16.60;;;11.60;99.90;;;;;;5077829;28;20758;-84
2022/10/22 03:54:08;;;;;;;21.95;14.65;;;11.50;99.90;;;;;;5077709;28;20500;-84
2022/10/22 03:56:34;;;;;;;18.90;13.13;;;11.50;99.90;;;;;;5061095;28;20082;-84
2022/10/22 03:59:00;;;;;;;20.10;12.10;;;11.50;99.90;;;;;;5061191;28;20035;-84
2022/10/22 04:01:41;;;;;;;20.52;11.13;;;11.50;99.90;;;;;;5087074;28;20039;-84
2022/10/22 04:04:07;;;;;;;15.32;9.93;;;11.50;99.90;;;;;;5075949;28;20032;-84
2022/10/22 04:06:33;;;;;;;13.73;9.63;;;11.50;99.90;;;;;;5080547;28;20144;-84
2022/10/22 04:08:59;;;;;;;17.48;10.13;;;11.40;99.90;;;;;;5060036;28;20028;-84
2022/10/22 04:11:25;;;;;;;15.30;9.35;;;11.40;99.90;;;;;;5064300;28;20016;-84
2022/10/22 04:13:51;;;;;;;16.52;9.90;;;11.50;99.90;;;;;;5056623;28;20036;-84
2022/10/22 04:16:19;;;;;;;18.77;12.00;;;11.60;99.90;;;;;;5077056;28;20028;-84
2022/10/22 04:18:47;;;;;;;20.95;12.00;;;11.60;99.90;;;;;;5076736;28;20417;-85
2022/10/22 04:21:15;;;;;;;19.08;12.45;;;11.50;99.90;;;;;;5094391;28;20035;-84
2022/10/22 04:23:45;;;;;;;19.17;10.68;;;11.50;99.90;;;;;;5061575;28;20118;-84
2022/10/22 04:26:11;;;;;;;15.90;9.20;;;11.60;99.90;;;;;;5077564;28;20036;-84
2022/10/22 04:28:37;;;;;;;14.10;7.55;;;11.50;99.90;;;;;;5062675;28;20047;-84
2022/10/22 04:31:12;;;;;;;19.38;7.68;;;11.50;99.90;;;;;;5053039;28;20111;-84
2022/10/22 04:33:39;;;;;;;8.57;6.35;;;11.50;99.90;;;;;;5081122;28;20028;-85
2022/10/22 04:36:11;;;;;;;18.58;6.72;;;11.40;99.90;;;;;;5054533;28;20025;-84
2022/10/22 04:38:37;;;;;;;13.77;7.85;;;11.40;99.90;;;;;;5082270;28;20036;-85
2022/10/22 04:41:13;;;;;;;15.02;8.30;;;11.40;99.90;;;;;;5073339;28;20031;-84
2022/10/22 04:43:39;;;;;;;10.00;7.60;;;11.40;99.90;;;;;;5083075;28;20497;-84
2022/10/22 04:46:07;;;;;;;12.27;8.20;;;11.40;99.90;;;;;;5058127;28;20119;-84
2022/10/22 04:48:35;;;;;;;16.02;8.50;;;11.30;99.90;;;;;;5068854;28;20032;-85
2022/10/22 04:51:01;;;;;;;12.35;8.07;;;11.10;99.90;;;;;;5083671;28;20021;-85
2022/10/22 04:53:27;;;;;;;15.43;8.48;;;11.10;99.90;;;;;;5069687;28;20036;-85
2022/10/22 04:55:53;;;;;;;12.25;9.23;;;11.00;99.90;;;;;;5085448;28;20024;-84
2022/10/22 04:58:37;;;;;;;14.32;9.27;;;10.90;99.90;;;;;;5071771;28;20090;-84
2022/10/22 05:01:33;;;;;;;13.05;7.70;;;10.80;99.90;;;;;;5072700;28;20095;-85
2022/10/22 05:04:01;;;;;;;9.25;6.20;;;10.80;99.90;;;;;;5064910;28;20043;-84
2022/10/22 05:06:29;;;;;;;12.35;7.47;;;10.70;99.90;;;;;;5062691;28;20027;-84
2022/10/22 05:08:58;;;;;;;14.80;7.05;;;10.80;99.90;;;;;;5074818;28;20027;-85
2022/10/22 05:11:57;;;;;;;14.85;6.53;;;10.90;99.90;;;;;;5080211;28;20028;-84
2022/10/22 05:14:24;;;;;;;13.32;5.75;;;10.80;99.90;;;;;;5068232;28;20040;-85
2022/10/22 05:17:14;;;;;;;19.98;6.40;;;10.80;99.90;;;;;;5081970;28;20123;-84
2022/10/22 05:19:40;;;;;;;10.10;6.03;;;10.80;99.90;;;;;;5070387;28;20472;-84
2022/10/22 05:22:06;;;;;;;8.73;5.60;;;10.80;99.90;;;;;;5082662;28;20035;-84
2022/10/22 05:28:39;;;;;;;8.63;5.10;;;10.90;99.90;;;;;;5080943;28;20038;-84
2022/10/22 05:31:06;;;;;;;8.93;5.07;;;11.00;99.90;;;;;;5068320;28;20032;-84
2022/10/22 05:33:33;;;;;;;11.52;6.13;;;11.00;99.90;;;;;;5055156;28;20024;-84
2022/10/22 05:36:00;;;;;;;6.70;5.25;;;11.00;99.90;;;;;;5066624;28;20036;-85
2022/10/22 05:38:25;;;;;;;8.85;5.45;;;11.00;99.90;;;;;;5066241;28;20025;-84
2022/10/22 05:41:06;;;;;;;10.77;5.20;;;10.90;99.90;;;;;;5078871;28;20391;-84
2022/10/22 05:43:33;;;;;;;8.63;5.95;;;10.80;99.90;;;;;;5075389;28;20028;-84
2022/10/22 05:46:04;;;;;;;14.27;5.53;;;10.70;99.90;;;;;;5060374;28;21196;-85
2022/10/22 05:48:30;;;;;;;10.30;6.00;;;10.70;99.90;;;;;;5083499;28;20448;-84
2022/10/22 05:50:55;;;;;;;8.68;5.65;;;10.70;99.90;;;;;;5059959;28;20119;-84
2022/10/22 05:53:21;;;;;;;12.70;6.60;;;10.80;99.90;;;;;;5066398;28;20048;-84
2022/10/22 05:56:01;;;;;;;13.50;8.45;;;10.80;99.90;;;;;;5071948;28;20815;-85
2022/10/22 05:58:26;;;;;;;13.10;6.63;;;10.80;99.90;;;;;;5040520;28;20036;-88
2022/10/22 06:00:52;;;;;;;12.25;6.75;;;10.80;99.90;;;;;;5050519;28;20823;-87
2022/10/22 06:03:18;;;;;;;11.82;6.20;;;10.80;99.90;;;;;;5062555;28;20028;-87
2022/10/22 06:05:43;;;;;;;11.32;5.70;;;10.80;99.90;;;;;;5047920;28;20029;-87
2022/10/22 06:08:12;;;;;;;9.13;5.63;;;10.80;99.90;;;;;;5066173;28;20056;-88
2022/10/22 06:10:41;;;;;;;6.55;4.60;;;10.80;99.90;;;;;;5074066;28;20047;-88
2022/10/22 06:13:07;;;;;;;6.97;5.00;;;10.80;99.90;;;;;;5049647;28;20024;-87
2022/10/22 06:15:34;;;;;;;10.90;4.35;;;10.80;99.90;;;;;;5049122;28;20046;-87
2022/10/22 06:18:00;;;;;;;7.30;3.90;;;10.80;99.90;;;;;;5054701;28;20017;-87
2022/10/22 06:20:26;;;;;;;6.28;3.55;;;10.80;99.90;;;;;;5065040;28;20656;-88
2022/10/22 06:22:52;;;;;;;5.10;2.92;;;10.90;99.90;;;;;;5106974;28;20028;-87
2022/10/22 06:25:18;;;;;;;6.93;2.70;;;10.90;99.90;;;;;;5047865;28;20029;-87
2022/10/22 06:27:48;;;;;;;9.77;2.95;;;10.90;99.90;;;;;;5065545;28;20491;-87
2022/10/22 06:30:14;;;;;;;2.85;2.15;;;11.00;99.90;;;;;;5053921;28;20024;-88
2022/10/22 06:32:40;;;;;;;3.92;2.53;;;11.00;99.90;;;;;;5069019;28;20029;-87
2022/10/22 06:35:06;;;;;;;3.80;1.95;;;11.00;99.90;;;;;;5065533;28;20020;-87
2022/10/22 06:37:32;;;;;;;7.75;2.55;;;11.10;99.90;;;;;;5049728;28;20054;-87
2022/10/22 06:39:57;;;;;;;11.45;2.08;;;11.20;99.90;;;;;;5048353;28;20144;-86
2022/10/22 06:46:12;;;;;;;4.63;1.73;;;11.20;99.90;;;;;;5065175;28;20039;-87
2022/10/22 06:48:39;;;;;;;3.85;2.33;;;11.20;99.90;;;;;;5070828;28;20040;-87
2022/10/22 06:51:07;;;;;;;6.60;2.03;;;11.20;99.90;;;;;;5049396;28;20094;-87
2022/10/22 06:53:33;;;;;;;3.25;1.73;;;11.20;99.90;;;;;;5052605;28;20383;-87
2022/10/22 06:56:07;;;;;;;2.70;1.73;;;11.10;99.90;;;;;;5053208;28;20448;-87
2022/10/22 06:58:33;;;;;;;4.40;2.05;;;11.20;99.90;;;;;;5064414;28;20556;-87
2022/10/22 07:01:10;;;;;;;5.50;2.15;;;11.30;99.90;;;;;;5052332;28;20067;-88
2022/10/22 07:03:37;;;;;;;5.30;2.42;;;11.30;99.90;;;;;;5072151;28;20036;-87
2022/10/22 07:06:05;;;;;;;3.63;2.70;;;11.30;99.90;;;;;;5058582;28;20031;-87
2022/10/22 07:08:32;;;;;;;4.53;3.22;;;11.30;99.90;;;;;;5060149;28;20029;-87
2022/10/22 07:11:06;;;;;;;5.60;2.80;;;11.30;99.90;;;;;;5067800;28;20035;-87
2022/10/22 07:13:32;;;;;;;6.72;2.20;;;11.30;99.90;;;;;;5068705;28;20069;-87
2022/10/22 07:15:58;;;;;;;5.20;2.58;;;11.40;99.90;;;;;;5070537;28;20111;-87
2022/10/22 07:18:24;;;;;;;2.60;2.30;;;11.50;99.90;;;;;;5049394;28;20032;-87
2022/10/22 07:20:49;;;;;;;7.00;2.13;;;11.60;99.90;;;;;;5059200;28;20040;-87
2022/10/22 07:23:16;;;;;;;7.40;2.63;;;11.70;99.90;;;;;;5075173;28;20033;-87
2022/10/22 07:25:41;;;;;;;2.30;1.73;;;11.80;99.90;;;;;;5070617;28;20472;-87
2022/10/22 07:28:07;;;;;;;4.32;1.77;;;11.90;99.90;;;;;;5076081;28;20065;-88
2022/10/22 07:30:34;;;;;;;2.67;1.63;;;12.00;99.90;;;;;;5070352;28;20032;-88
2022/10/22 07:33:00;;;;;;;2.60;1.67;;;11.90;99.90;;;;;;5067822;28;20013;-87
2022/10/22 07:35:25;;;;;;;3.60;1.65;;;11.90;99.90;;;;;;5071279;28;20032;-87
2022/10/22 07:37:51;;;;;;;3.63;1.55;;;12.00;99.90;;;;;;5086962;28;20472;-87
2022/10/22 07:40:17;;;;;;;1.92;1.23;;;11.90;99.90;;;;;;5073118;28;20699;-86
2022/10/22 07:42:42;;;;;;;1.30;1.00;;;11.90;99.90;;;;;;5071086;28;20089;-87
2022/10/22 07:45:08;;;;;;;1.95;1.20;;;12.00;99.90;;;;;;5062790;28;20182;-87
2022/10/22 07:47:34;;;;;;;9.10;1.10;;;12.00;99.90;;;;;;5071191;28;20025;-87
2022/10/22 07:50:00;;;;;;;1.15;0.80;;;12.00;99.90;;;;;;5068091;28;20028;-86
2022/10/22 07:52:26;;;;;;;3.08;0.90;;;12.10;99.90;;;;;;5071170;28;20025;-87
2022/10/22 07:54:52;;;;;;;2.05;0.80;;;12.10;99.90;;;;;;5086192;28;20063;-86
2022/10/22 07:57:18;;;;;;;2.08;1.05;;;12.20;99.90;;;;;;5055990;28;20049;-85
2022/10/22 07:59:43;;;;;;;2.03;0.80;;;12.20;99.90;;;;;;5070055;28;20048;-87
2022/10/22 08:02:11;;;;;;;2.88;0.95;;;12.30;99.90;;;;;;5060583;28;20029;-88
2022/10/22 08:05:12;;;;;;;0.98;0.77;;;12.30;99.90;;;;;;5083574;28;20032;-87
2022/10/22 08:07:39;;;;;;;27.17;1.67;;;12.40;99.90;;;;;;5055741;28;20480;-88
2022/10/22 08:10:06;;;;;;;5.72;0.73;;;12.50;99.90;;;;;;5087962;28;20067;-87
2022/10/22 08:12:32;;;;;;;2.50;0.60;;;12.60;99.90;;;;;;5055740;28;20370;-88
2022/10/22 08:14:59;;;;;;;5.40;0.88;;;12.60;99.90;;;;;;5076263;28;20016;-87
2022/10/22 08:17:25;;;;;;;3.15;0.65;;;12.60;99.90;;;;;;5059983;28;20078;-87
2022/10/22 08:19:51;;;;;;;1.50;0.50;;;12.60;99.90;;;;;;5092798;28;21319;-87
2022/10/22 08:22:26;;;;;;;3.47;0.73;;;12.60;99.90;;;;;;5064643;28;20119;-87
2022/10/22 08:24:52;;;;;;;1.30;0.50;;;12.70;99.90;;;;;;5078169;28;20491;-87
2022/10/22 08:27:18;;;;;;;1.30;0.70;;;12.80;99.90;;;;;;5066946;28;20029;-87
2022/10/22 08:29:43;;;;;;;2.08;0.90;;;12.80;99.90;;;;;;5074566;28;20041;-88
2022/10/22 08:32:09;;;;;;;4.30;0.55;;;12.80;99.90;;;;;;5076196;28;20127;-87
2022/10/22 08:34:35;;;;;;;3.92;0.75;;;12.90;99.90;;;;;;5074495;28;20021;-87
2022/10/22 08:37:13;;;;;;;1.10;0.60;;;12.90;99.90;;;;;;5076028;28;20337;-87
2022/10/22 08:39:39;;;;;;;0.90;0.60;;;12.80;99.90;;;;;;5065044;28;20035;-87
2022/10/22 08:42:15;;;;;;;3.05;0.70;;;12.80;99.90;;;;;;5067813;28;20020;-87
2022/10/22 08:45:00;;;;;;;1.45;0.95;;;12.80;99.90;;;;;;5062194;28;20037;-87
2022/10/22 08:47:52;;;;;;;8.48;2.00;;;12.80;99.90;;;;;;5077861;28;20020;-87
2022/10/22 08:50:25;;;;;;;5.45;1.40;;;12.80;99.90;;;;;;5076184;28;20027;-87
2022/10/22 08:52:56;;;;;;;2.90;2.08;;;12.80;99.90;;;;;;5074185;28;20107;-87
2022/10/22 08:55:23;;;;;;;1.10;0.75;;;12.80;99.90;;;;;;5079474;28;20035;-87
2022/10/22 08:58:08;;;;;;;1.08;0.80;;;12.80;99.90;;;;;;5060203;28;20067;-87
2022/10/22 09:00:45;;;;;;;1.10;1.00;;;12.90;99.90;;;;;;5079695;28;20768;-87
2022/10/22 09:03:13;;;;;;;2.65;0.88;;;13.10;99.90;;;;;;5059946;28;20063;-87
2022/10/22 09:06:06;;;;;;;4.32;0.88;;;13.20;99.90;;;;;;5076880;28;20032;-87
2022/10/22 09:08:32;;;;;;;7.38;1.20;;;13.40;99.90;;;;;;5059134;28;20028;-87
2022/10/22 09:11:06;;;;;;;1.75;1.30;;;13.40;99.90;;;;;;5064009;28;20024;-86
2022/10/22 09:13:31;;;;;;;5.68;1.20;;;13.60;99.90;;;;;;5078955;28;20026;-87
2022/10/22 09:16:19;;;;;;;5.88;1.40;;;13.70;99.90;;;;;;5064843;28;20470;-87
2022/10/22 09:18:59;;;;;;;3.17;1.50;;;13.90;99.90;;;;;;5075866;28;20059;-88
2022/10/22 09:22:02;;;;;;;4.35;1.00;;;14.10;99.90;;;;;;5080483;28;20020;-86
2022/10/22 09:24:37;;;;;;;2.70;0.82;;;14.10;99.90;;;;;;5071294;28;20115;-87
2022/10/22 09:27:25;;;;;;;2.70;0.70;;;14.30;99.90;;;;;;5072128;28;20407;-87
2022/10/22 09:29:51;;;;;;;6.85;1.17;;;14.50;99.90;;;;;;5074554;28;20788;-87
2022/10/22 09:32:17;;;;;;;1.63;0.88;;;14.50;99.90;;;;;;5065109;28;20056;-87
2022/10/22 09:34:44;;;;;;;4.82;1.08;;;14.40;99.90;;;;;;5074149;28;20083;-87
2022/10/22 09:37:27;;;;;;;7.53;1.80;;;14.40;99.90;;;;;;5071149;28;20036;-86
2022/10/22 09:39:55;;;;;;;6.65;0.93;;;14.40;99.90;;;;;;5055927;28;20139;-86
2022/10/22 09:42:55;;;;;;;3.67;0.90;;;14.80;99.90;;;;;;5054849;28;20122;-87
2022/10/22 09:45:24;;;;;;;1.20;0.90;;;15.30;99.90;;;;;;5065150;28;20068;-87
2022/10/22 09:48:27;;;;;;;2.67;1.15;;;15.70;99.90;;;;;;5056417;28;20033;-87
2022/10/22 09:51:18;;;;;;;5.47;1.00;;;16.10;99.90;;;;;;5041458;28;20093;-88
2022/10/22 09:53:46;;;;;;;5.68;0.95;;;16.70;99.90;;;;;;5051959;28;20123;-86
2022/10/22 09:56:28;;;;;;;9.88;1.02;;;16.60;99.90;;;;;;5051769;28;20380;-87
2022/10/22 09:58:57;;;;;;;9.30;1.20;;;16.50;99.90;;;;;;5053173;28;20424;-87
2022/10/22 10:01:37;;;;;;;5.13;1.05;;;16.80;99.90;;;;;;5042024;28;20029;-87
2022/10/22 10:04:09;;;;;;;3.75;1.02;;;17.70;99.90;;;;;;5081637;28;20100;-87
2022/10/22 10:06:39;;;;;;;4.03;1.02;;;18.20;99.90;;;;;;5055141;28;20031;-87
2022/10/22 10:09:33;;;;;;;4.75;1.08;;;18.40;99.90;;;;;;5049123;28;20028;-87
2022/10/22 10:12:17;;;;;;;1.10;0.65;;;18.70;99.90;;;;;;5060025;28;20499;-87
2022/10/22 10:15:06;;;;;;;6.38;1.25;;;18.90;99.90;;;;;;5074912;28;20032;-87
2022/10/22 10:17:39;;;;;;;4.00;1.52;;;18.90;99.90;;;;;;5049763;28;20051;-88
2022/10/22 10:20:21;;;;;;;2.88;1.08;;;19.10;99.90;;;;;;5065267;28;20032;-88
2022/10/22 10:23:18;;;;;;;4.30;1.40;;;19.10;99.90;;;;;;5051442;28;20131;-88
2022/10/22 10:26:16;;;;;;;1.52;1.10;;;19.50;99.90;;;;;;5052849;28;20127;-87
2022/10/22 10:28:55;;;;;;;3.95;1.00;;;19.70;99.90;;;;;;5065935;28;20142;-87
2022/10/22 10:31:42;;;;;;;6.80;1.40;;;19.60;99.90;;;;;;5053401;28;20033;-88
2022/10/22 10:34:45;;;;;;;8.90;0.90;;;19.50;99.90;;;;;;5050536;28;20419;-88
2022/10/22 10:37:22;;;;;;;4.35;0.75;;;19.30;99.90;;;;;;5052232;28;20067;-88
2022/10/22 10:39:53;;;;;;;2.28;0.90;;;19.40;99.90;;;;;;5047703;28;20120;-87
2022/10/22 10:42:42;;;;;;;10.43;1.63;;;19.70;99.90;;;;;;5049812;28;20028;-87
2022/10/22 10:45:32;;;;;;;3.40;1.00;;;19.40;99.90;;;;;;5060464;28;20533;-88
2022/10/22 10:48:07;;;;;;;5.00;1.40;;;18.80;99.90;;;;;;5056194;28;20037;-87
2022/10/22 10:50:35;;;;;;;4.85;1.70;;;18.30;99.90;;;;;;5073758;28;20387;-87
2022/10/22 10:53:27;;;;;;;3.53;1.20;;;17.80;99.90;;;;;;5073118;28;20463;-88
2022/10/22 10:56:06;;;;;;;7.78;1.67;;;17.30;99.90;;;;;;5069115;28;20383;-87
2022/10/22 10:58:57;;;;;;;3.40;0.90;;;16.90;99.90;;;;;;5072673;28;20024;-88
2022/10/22 11:01:39;;;;;;;4.68;1.45;;;16.50;99.90;;;;;;5042627;28;20021;-88
2022/10/22 11:04:39;;;;;;;5.03;0.90;;;16.40;99.90;;;;;;5052586;28;20049;-88
2022/10/22 11:07:09;;;;;;;7.13;1.60;;;16.20;99.90;;;;;;5070226;28;20029;-88
2022/10/22 11:09:43;;;;;;;8.65;2.53;;;16.00;99.90;;;;;;5054075;28;20361;-88
2022/10/22 11:12:18;;;;;;;4.18;2.50;;;16.00;99.90;;;;;;5041356;28;20032;-87
2022/10/22 11:15:06;;;;;;;7.38;1.40;;;16.20;99.90;;;;;;5068732;28;20615;-87
2022/10/22 11:17:39;;;;;;;5.95;1.40;;;16.40;99.90;;;;;;5067956;28;20028;-88
2022/10/22 11:20:08;;;;;;;8.38;1.70;;;16.40;99.90;;;;;;5050637;28;20035;-88
2022/10/22 11:22:40;;;;;;;12.93;1.42;;;16.60;99.90;;;;;;5054234;28;20543;-87
2022/10/22 11:25:19;;;;;;;6.32;1.25;;;17.50;99.90;;;;;;5064751;28;20119;-88
2022/10/22 11:28:10;;;;;;;3.78;1.10;;;18.10;99.90;;;;;;5066812;28;20032;-87
2022/10/22 11:31:19;;;;;;;3.92;0.93;;;18.90;99.90;;;;;;5053534;28;20036;-88
2022/10/22 11:33:56;;;;;;;4.82;1.13;;;19.70;99.90;;;;;;5077679;28;20068;-88
2022/10/22 11:36:24;;;;;;;10.43;1.50;;;20.40;99.90;;;;;;5077900;28;20364;-88
2022/10/22 11:38:51;;;;;;;3.05;1.45;;;20.40;99.90;;;;;;5079556;28;20138;-88
2022/10/22 11:41:20;;;;;;;4.18;1.05;;;21.00;99.90;;;;;;5075108;28;20131;-88
2022/10/22 11:44:21;;;;;;;7.82;1.40;;;21.70;99.90;;;;;;5063384;28;20163;-88
2022/10/22 11:47:07;;;;;;;5.18;0.90;;;21.80;99.90;;;;;;5055751;28;20040;-88
2022/10/22 11:49:45;;;;;;;5.72;1.20;;;21.20;99.90;;;;;;5065859;28;20039;-87
2022/10/22 11:52:38;;;;;;;5.65;1.33;;;21.30;99.90;;;;;;5055521;28;20053;-87
2022/10/22 11:55:49;;;;;;;4.82;1.30;;;20.50;99.90;;;;;;5059281;28;20074;-87
2022/10/22 11:58:27;;;;;;;2.22;0.80;;;19.80;99.90;;;;;;5073976;28;20107;-87
2022/10/22 12:00:54;;;;;;;4.97;2.20;;;19.80;99.90;;;;;;5056486;28;20046;-88
2022/10/22 12:03:32;;;;;;;7.22;1.38;;;19.80;99.90;;;;;;5068026;28;20111;-88
2022/10/22 12:06:20;;;;;;;10.55;1.20;;;19.50;99.90;;;;;;5081052;28;20035;-88
2022/10/22 12:08:51;;;;;;;2.63;1.05;;;19.40;99.90;;;;;;5060020;28;20040;-88
2022/10/22 12:11:26;;;;;;;;;;;19.20;99.90;;;;;;5064668;28;20062;-87
2022/10/22 12:14:14;;;;;;;3.85;1.00;;;19.20;99.90;;;;;;5073024;28;19917;-88
2022/10/22 12:16:44;;;;;;;6.25;1.00;;;19.20;99.90;;;;;;5082338;28;20039;-88
2022/10/22 12:19:10;;;;;;;3.00;1.10;;;19.40;99.90;;;;;;5055165;28;20429;-88
2022/10/22 12:21:38;;;;;;;6.70;2.28;;;19.40;99.90;;;;;;5085026;28;20027;-87
2022/10/22 12:24:04;;;;;;;4.90;0.95;;;19.50;99.90;;;;;;5074789;28;20025;-88
2022/10/22 12:26:33;;;;;;;6.82;1.17;;;19.90;99.90;;;;;;5084836;28;20020;-87
2022/10/22 12:29:01;;;;;;;4.53;1.20;;;20.10;99.90;;;;;;5069304;28;20031;-88
2022/10/22 12:31:33;;;;;;;6.05;0.88;;;20.00;99.90;;;;;;5060766;28;20638;-88
2022/10/22 12:33:59;;;;;;;5.13;1.17;;;19.60;99.90;;;;;;5053544;28;20489;-88
2022/10/22 12:36:30;;;;;;;3.40;0.93;;;19.60;99.90;;;;;;5063200;28;20036;-87
2022/10/22 12:39:09;;;;;;;6.30;0.90;;;19.40;99.90;;;;;;5078087;28;20085;-88
2022/10/22 12:41:36;;;;;;;4.95;1.20;;;19.20;99.90;;;;;;5080867;28;20484;-87
2022/10/22 12:44:04;;;;;;;4.15;1.00;;;19.20;99.90;;;;;;5061847;28;20020;-88
2022/10/22 12:46:34;;;;;;;6.28;1.33;;;19.00;99.90;;;;;;5056618;28;20479;-88
2022/10/22 12:49:21;;;;;;;5.10;1.15;;;18.90;99.90;;;;;;5071903;28;20030;-88
2022/10/22 12:51:48;;;;;;;11.70;1.45;;;19.00;99.90;;;;;;5074884;28;20043;-87
2022/10/22 12:54:27;;;;;;;3.83;1.27;;;19.10;99.90;;;;;;5080088;28;20055;-88
2022/10/22 12:56:54;;;;;;;3.47;1.10;;;19.10;99.90;;;;;;5077442;28;20078;-88
2022/10/22 12:59:32;;;;;;;4.10;1.08;;;18.90;99.90;;;;;;5063702;28;20475;-89
2022/10/22 13:01:58;;;;;;;8.52;1.75;;;19.00;99.90;;;;;;5073925;28;20793;-88
2022/10/22 13:04:37;;;;;;;3.88;1.23;;;19.10;99.90;;;;;;5080070;28;20118;-88
2022/10/22 13:07:11;;;;;;;5.97;1.20;;;19.00;99.90;;;;;;5053360;28;20843;-88
2022/10/22 13:09:39;;;;;;;5.28;1.15;;;18.90;99.90;;;;;;5083831;28;20035;-87
2022/10/22 13:12:06;;;;;;;6.82;1.63;;;18.50;99.90;;;;;;5074516;28;20025;-87
2022/10/22 13:14:34;;;;;;;8.55;1.33;;;18.10;99.90;;;;;;5051956;28;20139;-86
2022/10/22 13:17:16;;;;;;;7.55;1.40;;;18.00;99.90;;;;;;5082515;28;20375;-87